METAR Data
IDs: Format: Raw Decoded Include TAF

Data at: 0203 UTC 01 Mar 2021

EGXS 010050Z AUTO 06004KT 4200 // NCD 03/03 Q1035